sensor_id;sensor_type;location;lat;lon;timestamp;P1;durP1;ratioP1;P2;durP2;ratioP2
14770;SDS011;7477;45.222;5.688;2022-09-01T00:00:08;4.75;;;2.88;;
14770;SDS011;7477;45.222;5.688;2022-09-01T00:03:32;4.78;;;2.72;;
14770;SDS011;7477;45.222;5.688;2022-09-01T00:06:53;3.67;;;3.10;;
14770;SDS011;7477;45.222;5.688;2022-09-01T00:10:13;4.45;;;3.28;;
14770;SDS011;7477;45.222;5.688;2022-09-01T00:13:34;7.40;;;2.75;;
14770;SDS011;7477;45.222;5.688;2022-09-01T00:16:53;3.50;;;2.80;;
14770;SDS011;7477;45.222;5.688;2022-09-01T00:20:12;4.57;;;2.83;;
14770;SDS011;7477;45.222;5.688;2022-09-01T00:23:32;3.83;;;2.80;;
14770;SDS011;7477;45.222;5.688;2022-09-01T00:26:52;4.30;;;2.95;;
14770;SDS011;7477;45.222;5.688;2022-09-01T00:30:12;3.70;;;2.70;;
14770;SDS011;7477;45.222;5.688;2022-09-01T00:33:35;3.67;;;2.70;;
14770;SDS011;7477;45.222;5.688;2022-09-01T00:36:55;4.78;;;2.40;;
14770;SDS011;7477;45.222;5.688;2022-09-01T00:40:15;7.38;;;2.90;;
14770;SDS011;7477;45.222;5.688;2022-09-01T00:43:40;3.97;;;2.83;;
14770;SDS011;7477;45.222;5.688;2022-09-01T00:47:02;3.20;;;2.60;;
14770;SDS011;7477;45.222;5.688;2022-09-01T00:50:24;5.85;;;2.85;;
14770;SDS011;7477;45.222;5.688;2022-09-01T00:53:43;4.05;;;2.63;;
14770;SDS011;7477;45.222;5.688;2022-09-01T00:57:03;5.20;;;2.97;;
14770;SDS011;7477;45.222;5.688;2022-09-01T01:00:25;4.22;;;2.90;;
14770;SDS011;7477;45.222;5.688;2022-09-01T01:03:47;4.75;;;2.60;;
14770;SDS011;7477;45.222;5.688;2022-09-01T01:07:06;7.78;;;3.33;;
14770;SDS011;7477;45.222;5.688;2022-09-01T01:10:26;5.90;;;3.10;;
14770;SDS011;7477;45.222;5.688;2022-09-01T01:13:52;4.15;;;2.95;;
14770;SDS011;7477;45.222;5.688;2022-09-01T01:17:17;3.33;;;2.70;;
14770;SDS011;7477;45.222;5.688;2022-09-01T01:20:38;4.50;;;2.70;;
14770;SDS011;7477;45.222;5.688;2022-09-01T01:27:39;3.75;;;2.88;;
14770;SDS011;7477;45.222;5.688;2022-09-01T01:34:21;4.50;;;3.03;;
14770;SDS011;7477;45.222;5.688;2022-09-01T01:37:42;6.10;;;3.42;;
14770;SDS011;7477;45.222;5.688;2022-09-01T01:41:07;4.78;;;2.80;;
14770;SDS011;7477;45.222;5.688;2022-09-01T01:44:27;5.95;;;3.33;;
14770;SDS011;7477;45.222;5.688;2022-09-01T01:47:48;5.07;;;3.10;;
14770;SDS011;7477;45.222;5.688;2022-09-01T01:51:10;3.08;;;2.75;;
14770;SDS011;7477;45.222;5.688;2022-09-01T01:54:31;4.55;;;2.90;;
14770;SDS011;7477;45.222;5.688;2022-09-01T01:57:51;4.38;;;3.10;;
14770;SDS011;7477;45.222;5.688;2022-09-01T02:01:11;3.67;;;3.17;;
14770;SDS011;7477;45.222;5.688;2022-09-01T02:04:31;4.25;;;3.08;;
14770;SDS011;7477;45.222;5.688;2022-09-01T02:07:52;5.60;;;2.55;;
14770;SDS011;7477;45.222;5.688;2022-09-01T02:11:17;3.90;;;3.47;;
14770;SDS011;7477;45.222;5.688;2022-09-01T02:14:36;8.23;;;3.30;;
14770;SDS011;7477;45.222;5.688;2022-09-01T02:17:56;4.88;;;3.75;;
14770;SDS011;7477;45.222;5.688;2022-09-01T02:21:18;6.43;;;3.60;;
14770;SDS011;7477;45.222;5.688;2022-09-01T02:24:40;3.60;;;3.20;;
14770;SDS011;7477;45.222;5.688;2022-09-01T02:28:05;8.35;;;3.40;;
14770;SDS011;7477;45.222;5.688;2022-09-01T02:31:27;6.43;;;3.72;;
14770;SDS011;7477;45.222;5.688;2022-09-01T02:34:47;3.42;;;3.13;;
14770;SDS011;7477;45.222;5.688;2022-09-01T02:38:11;4.32;;;3.53;;
14770;SDS011;7477;45.222;5.688;2022-09-01T02:41:31;4.55;;;3.05;;
14770;SDS011;7477;45.222;5.688;2022-09-01T02:44:53;6.55;;;3.60;;
14770;SDS011;7477;45.222;5.688;2022-09-01T02:48:12;3.65;;;3.35;;
14770;SDS011;7477;45.222;5.688;2022-09-01T02:51:31;7.88;;;3.85;;
14770;SDS011;7477;45.222;5.688;2022-09-01T02:54:52;5.47;;;3.53;;
14770;SDS011;7477;45.222;5.688;2022-09-01T02:58:13;5.55;;;3.40;;
14770;SDS011;7477;45.222;5.688;2022-09-01T03:01:37;6.10;;;3.40;;
14770;SDS011;7477;45.222;5.688;2022-09-01T03:04:57;6.63;;;3.10;;
14770;SDS011;7477;45.222;5.688;2022-09-01T03:08:17;4.05;;;3.47;;
14770;SDS011;7477;45.222;5.688;2022-09-01T03:11:37;4.65;;;3.22;;
14770;SDS011;7477;45.222;5.688;2022-09-01T03:14:57;5.10;;;3.15;;
14770;SDS011;7477;45.222;5.688;2022-09-01T03:18:17;7.05;;;3.70;;
14770;SDS011;7477;45.222;5.688;2022-09-01T03:21:37;5.22;;;3.35;;
14770;SDS011;7477;45.222;5.688;2022-09-01T03:24:58;5.28;;;3.70;;
14770;SDS011;7477;45.222;5.688;2022-09-01T03:28:17;8.18;;;3.67;;
14770;SDS011;7477;45.222;5.688;2022-09-01T03:31:37;7.35;;;3.92;;
14770;SDS011;7477;45.222;5.688;2022-09-01T03:34:56;6.07;;;3.78;;
14770;SDS011;7477;45.222;5.688;2022-09-01T03:38:17;4.72;;;3.50;;
14770;SDS011;7477;45.222;5.688;2022-09-01T03:41:41;4.78;;;3.55;;
14770;SDS011;7477;45.222;5.688;2022-09-01T03:45:03;8.63;;;3.10;;
14770;SDS011;7477;45.222;5.688;2022-09-01T03:48:27;5.88;;;3.58;;
14770;SDS011;7477;45.222;5.688;2022-09-01T03:51:49;4.40;;;3.10;;
14770;SDS011;7477;45.222;5.688;2022-09-01T03:55:11;6.30;;;3.70;;
14770;SDS011;7477;45.222;5.688;2022-09-01T03:58:30;6.97;;;3.50;;
14770;SDS011;7477;45.222;5.688;2022-09-01T04:01:50;13.98;;;3.88;;
14770;SDS011;7477;45.222;5.688;2022-09-01T04:05:09;5.07;;;3.70;;
14770;SDS011;7477;45.222;5.688;2022-09-01T04:08:29;5.57;;;4.00;;
14770;SDS011;7477;45.222;5.688;2022-09-01T04:11:48;5.00;;;4.13;;
14770;SDS011;7477;45.222;5.688;2022-09-01T04:15:12;7.40;;;4.07;;
14770;SDS011;7477;45.222;5.688;2022-09-01T04:18:32;4.55;;;3.58;;
14770;SDS011;7477;45.222;5.688;2022-09-01T04:21:53;4.25;;;3.75;;
14770;SDS011;7477;45.222;5.688;2022-09-01T04:25:14;9.75;;;3.78;;
14770;SDS011;7477;45.222;5.688;2022-09-01T04:28:36;5.20;;;3.28;;
14770;SDS011;7477;45.222;5.688;2022-09-01T04:31:59;6.90;;;3.83;;
14770;SDS011;7477;45.222;5.688;2022-09-01T04:35:22;4.75;;;3.70;;
14770;SDS011;7477;45.222;5.688;2022-09-01T04:38:51;5.22;;;3.88;;
14770;SDS011;7477;45.222;5.688;2022-09-01T04:42:13;7.30;;;4.00;;
14770;SDS011;7477;45.222;5.688;2022-09-01T04:45:34;4.53;;;3.78;;
14770;SDS011;7477;45.222;5.688;2022-09-01T04:48:54;6.68;;;3.55;;
14770;SDS011;7477;45.222;5.688;2022-09-01T04:52:15;7.45;;;4.05;;
14770;SDS011;7477;45.222;5.688;2022-09-01T04:55:34;6.88;;;3.85;;
14770;SDS011;7477;45.222;5.688;2022-09-01T04:58:57;6.55;;;3.70;;
14770;SDS011;7477;45.222;5.688;2022-09-01T05:02:16;4.65;;;3.92;;
14770;SDS011;7477;45.222;5.688;2022-09-01T05:05:37;6.80;;;4.20;;
14770;SDS011;7477;45.222;5.688;2022-09-01T05:09:02;7.80;;;4.10;;
14770;SDS011;7477;45.222;5.688;2022-09-01T05:12:21;10.40;;;4.25;;
14770;SDS011;7477;45.222;5.688;2022-09-01T05:15:40;5.00;;;4.30;;
14770;SDS011;7477;45.222;5.688;2022-09-01T05:19:04;4.22;;;3.47;;
14770;SDS011;7477;45.222;5.688;2022-09-01T05:22:24;7.97;;;4.05;;
14770;SDS011;7477;45.222;5.688;2022-09-01T05:25:43;7.57;;;4.05;;
14770;SDS011;7477;45.222;5.688;2022-09-01T05:29:04;4.28;;;3.67;;
14770;SDS011;7477;45.222;5.688;2022-09-01T05:32:31;6.63;;;3.95;;
14770;SDS011;7477;45.222;5.688;2022-09-01T05:35:52;6.15;;;4.10;;
14770;SDS011;7477;45.222;5.688;2022-09-01T05:39:17;7.10;;;4.90;;
14770;SDS011;7477;45.222;5.688;2022-09-01T05:42:37;5.00;;;4.30;;
14770;SDS011;7477;45.222;5.688;2022-09-01T05:45:58;4.30;;;3.90;;
14770;SDS011;7477;45.222;5.688;2022-09-01T05:49:22;8.23;;;3.92;;
14770;SDS011;7477;45.222;5.688;2022-09-01T05:52:42;4.53;;;4.13;;
14770;SDS011;7477;45.222;5.688;2022-09-01T05:56:06;5.70;;;4.15;;
14770;SDS011;7477;45.222;5.688;2022-09-01T05:59:27;5.32;;;4.20;;
14770;SDS011;7477;45.222;5.688;2022-09-01T06:02:49;4.75;;;4.28;;
14770;SDS011;7477;45.222;5.688;2022-09-01T06:06:09;5.68;;;3.97;;
14770;SDS011;7477;45.222;5.688;2022-09-01T06:09:29;9.75;;;4.47;;
14770;SDS011;7477;45.222;5.688;2022-09-01T06:12:49;5.18;;;4.22;;
14770;SDS011;7477;45.222;5.688;2022-09-01T06:16:10;9.05;;;4.20;;
14770;SDS011;7477;45.222;5.688;2022-09-01T06:19:29;7.40;;;4.47;;
14770;SDS011;7477;45.222;5.688;2022-09-01T06:22:51;7.63;;;4.50;;
14770;SDS011;7477;45.222;5.688;2022-09-01T06:26:17;6.50;;;3.83;;
14770;SDS011;7477;45.222;5.688;2022-09-01T06:29:39;6.05;;;4.43;;
14770;SDS011;7477;45.222;5.688;2022-09-01T06:32:58;5.47;;;4.72;;
14770;SDS011;7477;45.222;5.688;2022-09-01T06:36:22;6.13;;;3.90;;
14770;SDS011;7477;45.222;5.688;2022-09-01T06:39:43;10.75;;;4.75;;
14770;SDS011;7477;45.222;5.688;2022-09-01T06:43:03;6.28;;;4.10;;
14770;SDS011;7477;45.222;5.688;2022-09-01T06:46:25;4.97;;;4.28;;
14770;SDS011;7477;45.222;5.688;2022-09-01T06:49:47;4.90;;;3.83;;
14770;SDS011;7477;45.222;5.688;2022-09-01T06:53:06;10.15;;;4.30;;
14770;SDS011;7477;45.222;5.688;2022-09-01T06:56:29;4.57;;;4.15;;
14770;SDS011;7477;45.222;5.688;2022-09-01T06:59:51;6.28;;;4.18;;
14770;SDS011;7477;45.222;5.688;2022-09-01T07:03:12;7.13;;;4.32;;
14770;SDS011;7477;45.222;5.688;2022-09-01T07:06:31;8.65;;;4.32;;
14770;SDS011;7477;45.222;5.688;2022-09-01T07:09:53;7.97;;;4.55;;
14770;SDS011;7477;45.222;5.688;2022-09-01T07:13:13;8.55;;;4.35;;
14770;SDS011;7477;45.222;5.688;2022-09-01T07:16:40;6.40;;;4.47;;
14770;SDS011;7477;45.222;5.688;2022-09-01T07:20:02;7.55;;;4.13;;
14770;SDS011;7477;45.222;5.688;2022-09-01T07:23:21;5.20;;;4.20;;
14770;SDS011;7477;45.222;5.688;2022-09-01T07:26:45;4.72;;;4.28;;
14770;SDS011;7477;45.222;5.688;2022-09-01T07:30:10;4.32;;;3.92;;
14770;SDS011;7477;45.222;5.688;2022-09-01T07:33:30;5.93;;;4.63;;
14770;SDS011;7477;45.222;5.688;2022-09-01T07:36:51;6.22;;;3.85;;
14770;SDS011;7477;45.222;5.688;2022-09-01T07:40:15;5.40;;;4.60;;
14770;SDS011;7477;45.222;5.688;2022-09-01T07:43:38;6.45;;;5.13;;
14770;SDS011;7477;45.222;5.688;2022-09-01T07:47:00;6.10;;;4.55;;
14770;SDS011;7477;45.222;5.688;2022-09-01T07:50:19;4.93;;;4.13;;
14770;SDS011;7477;45.222;5.688;2022-09-01T07:53:38;5.85;;;4.15;;
14770;SDS011;7477;45.222;5.688;2022-09-01T07:56:58;7.03;;;4.07;;
14770;SDS011;7477;45.222;5.688;2022-09-01T08:00:19;6.22;;;4.00;;
14770;SDS011;7477;45.222;5.688;2022-09-01T08:03:39;5.82;;;4.25;;
14770;SDS011;7477;45.222;5.688;2022-09-01T08:06:59;4.63;;;3.90;;
14770;SDS011;7477;45.222;5.688;2022-09-01T08:10:19;5.60;;;4.03;;
14770;SDS011;7477;45.222;5.688;2022-09-01T08:13:39;5.10;;;4.60;;
14770;SDS011;7477;45.222;5.688;2022-09-01T08:16:58;11.98;;;4.80;;
14770;SDS011;7477;45.222;5.688;2022-09-01T08:20:17;5.53;;;4.15;;
14770;SDS011;7477;45.222;5.688;2022-09-01T08:23:37;5.03;;;3.75;;
14770;SDS011;7477;45.222;5.688;2022-09-01T08:26:57;3.35;;;3.05;;
14770;SDS011;7477;45.222;5.688;2022-09-01T08:30:16;4.78;;;3.70;;
14770;SDS011;7477;45.222;5.688;2022-09-01T08:33:40;4.68;;;4.20;;
14770;SDS011;7477;45.222;5.688;2022-09-01T08:37:00;3.30;;;3.00;;
14770;SDS011;7477;45.222;5.688;2022-09-01T08:40:20;4.35;;;3.95;;
14770;SDS011;7477;45.222;5.688;2022-09-01T08:47:11;6.63;;;3.95;;
14770;SDS011;7477;45.222;5.688;2022-09-01T08:50:35;4.53;;;2.85;;
14770;SDS011;7477;45.222;5.688;2022-09-01T08:57:32;5.25;;;4.00;;
14770;SDS011;7477;45.222;5.688;2022-09-01T09:00:54;4.07;;;3.67;;
14770;SDS011;7477;45.222;5.688;2022-09-01T09:04:30;5.50;;;4.40;;
14770;SDS011;7477;45.222;5.688;2022-09-01T09:22:12;6.28;;;4.28;;
14770;SDS011;7477;45.222;5.688;2022-09-01T09:25:34;4.60;;;4.13;;
14770;SDS011;7477;45.222;5.688;2022-09-01T09:28:53;5.57;;;3.60;;
14770;SDS011;7477;45.222;5.688;2022-09-01T09:32:12;4.60;;;4.20;;
14770;SDS011;7477;45.222;5.688;2022-09-01T09:35:34;5.38;;;4.75;;
14770;SDS011;7477;45.222;5.688;2022-09-01T09:39:11;6.30;;;4.38;;
14770;SDS011;7477;45.222;5.688;2022-09-01T09:42:35;3.47;;;3.17;;
14770;SDS011;7477;45.222;5.688;2022-09-01T09:50:10;4.95;;;4.35;;
14770;SDS011;7477;45.222;5.688;2022-09-01T09:53:38;4.28;;;3.95;;
14770;SDS011;7477;45.222;5.688;2022-09-01T09:57:16;5.05;;;4.30;;
14770;SDS011;7477;45.222;5.688;2022-09-01T10:00:35;5.63;;;4.32;;
14770;SDS011;7477;45.222;5.688;2022-09-01T10:03:59;5.72;;;4.57;;
14770;SDS011;7477;45.222;5.688;2022-09-01T10:10:47;5.13;;;4.30;;
14770;SDS011;7477;45.222;5.688;2022-09-01T10:14:10;5.18;;;4.07;;
14770;SDS011;7477;45.222;5.688;2022-09-01T10:17:37;4.60;;;4.20;;
14770;SDS011;7477;45.222;5.688;2022-09-01T10:24:28;5.13;;;3.85;;
14770;SDS011;7477;45.222;5.688;2022-09-01T10:27:57;4.85;;;3.55;;
14770;SDS011;7477;45.222;5.688;2022-09-01T10:31:23;3.65;;;3.35;;
14770;SDS011;7477;45.222;5.688;2022-09-01T10:34:42;6.85;;;3.92;;
14770;SDS011;7477;45.222;5.688;2022-09-01T10:38:08;5.10;;;4.13;;
14770;SDS011;7477;45.222;5.688;2022-09-01T10:41:52;5.22;;;4.10;;
14770;SDS011;7477;45.222;5.688;2022-09-01T10:45:36;4.38;;;3.90;;
14770;SDS011;7477;45.222;5.688;2022-09-01T10:48:58;6.35;;;4.70;;
14770;SDS011;7477;45.222;5.688;2022-09-01T10:56:04;6.05;;;4.22;;
14770;SDS011;7477;45.222;5.688;2022-09-01T10:59:27;4.80;;;3.60;;
14770;SDS011;7477;45.222;5.688;2022-09-01T11:06:33;3.35;;;3.05;;
14770;SDS011;7477;45.222;5.688;2022-09-01T11:10:08;5.25;;;3.63;;
14770;SDS011;7477;45.222;5.688;2022-09-01T11:13:49;4.55;;;3.60;;
14770;SDS011;7477;45.222;5.688;2022-09-01T11:17:14;4.97;;;3.72;;
14770;SDS011;7477;45.222;5.688;2022-09-01T11:20:38;4.20;;;3.80;;
14770;SDS011;7477;45.222;5.688;2022-09-01T11:27:56;4.65;;;3.85;;
14770;SDS011;7477;45.222;5.688;2022-09-01T11:31:28;8.30;;;3.70;;
14770;SDS011;7477;45.222;5.688;2022-09-01T11:34:49;4.18;;;3.78;;
14770;SDS011;7477;45.222;5.688;2022-09-01T11:38:11;4.32;;;3.70;;
14770;SDS011;7477;45.222;5.688;2022-09-01T11:45:00;4.28;;;3.65;;
14770;SDS011;7477;45.222;5.688;2022-09-01T11:48:23;4.10;;;3.78;;
14770;SDS011;7477;45.222;5.688;2022-09-01T11:51:45;4.38;;;3.97;;
14770;SDS011;7477;45.222;5.688;2022-09-01T11:55:06;4.57;;;3.60;;
14770;SDS011;7477;45.222;5.688;2022-09-01T11:58:30;5.13;;;3.85;;
14770;SDS011;7477;45.222;5.688;2022-09-01T12:01:55;4.40;;;3.65;;
14770;SDS011;7477;45.222;5.688;2022-09-01T12:08:53;3.95;;;3.63;;
14770;SDS011;7477;45.222;5.688;2022-09-01T12:15:56;3.13;;;2.75;;
14770;SDS011;7477;45.222;5.688;2022-09-01T12:19:23;3.10;;;2.90;;
14770;SDS011;7477;45.222;5.688;2022-09-01T12:22:44;3.72;;;3.40;;
14770;SDS011;7477;45.222;5.688;2022-09-01T12:29:28;4.72;;;3.42;;
14770;SDS011;7477;45.222;5.688;2022-09-01T12:32:49;4.57;;;3.50;;
14770;SDS011;7477;45.222;5.688;2022-09-01T12:36:28;3.80;;;3.28;;
14770;SDS011;7477;45.222;5.688;2022-09-01T12:39:55;3.65;;;3.25;;
14770;SDS011;7477;45.222;5.688;2022-09-01T12:43:29;3.38;;;3.08;;
14770;SDS011;7477;45.222;5.688;2022-09-01T12:46:51;3.47;;;3.17;;
14770;SDS011;7477;45.222;5.688;2022-09-01T12:53:33;4.53;;;2.80;;
14770;SDS011;7477;45.222;5.688;2022-09-01T12:56:53;3.33;;;3.00;;
14770;SDS011;7477;45.222;5.688;2022-09-01T13:00:20;3.35;;;3.05;;
14770;SDS011;7477;45.222;5.688;2022-09-01T13:07:26;5.30;;;2.72;;
14770;SDS011;7477;45.222;5.688;2022-09-01T13:10:46;3.55;;;2.90;;
14770;SDS011;7477;45.222;5.688;2022-09-01T13:14:08;6.32;;;3.13;;
14770;SDS011;7477;45.222;5.688;2022-09-01T13:17:27;5.40;;;3.17;;
14770;SDS011;7477;45.222;5.688;2022-09-01T13:20:48;4.55;;;3.50;;
14770;SDS011;7477;45.222;5.688;2022-09-01T13:24:08;3.17;;;2.88;;
14770;SDS011;7477;45.222;5.688;2022-09-01T13:27:28;4.38;;;2.95;;
14770;SDS011;7477;45.222;5.688;2022-09-01T13:30:48;4.43;;;2.75;;
14770;SDS011;7477;45.222;5.688;2022-09-01T13:34:14;4.13;;;2.95;;
14770;SDS011;7477;45.222;5.688;2022-09-01T13:37:33;3.83;;;3.10;;
14770;SDS011;7477;45.222;5.688;2022-09-01T13:40:53;3.00;;;2.80;;
14770;SDS011;7477;45.222;5.688;2022-09-01T13:44:12;2.97;;;2.65;;
14770;SDS011;7477;45.222;5.688;2022-09-01T13:47:32;3.60;;;2.70;;
14770;SDS011;7477;45.222;5.688;2022-09-01T13:50:51;3.30;;;3.00;;
14770;SDS011;7477;45.222;5.688;2022-09-01T13:54:10;2.65;;;2.45;;
14770;SDS011;7477;45.222;5.688;2022-09-01T13:57:30;3.25;;;2.95;;
14770;SDS011;7477;45.222;5.688;2022-09-01T14:00:49;5.85;;;2.95;;
14770;SDS011;7477;45.222;5.688;2022-09-01T14:04:08;4.90;;;2.90;;
14770;SDS011;7477;45.222;5.688;2022-09-01T14:07:28;2.40;;;2.20;;
14770;SDS011;7477;45.222;5.688;2022-09-01T14:10:51;4.22;;;2.83;;
14770;SDS011;7477;45.222;5.688;2022-09-01T14:14:11;2.80;;;2.60;;
14770;SDS011;7477;45.222;5.688;2022-09-01T14:17:31;2.42;;;2.22;;
14770;SDS011;7477;45.222;5.688;2022-09-01T14:20:50;3.20;;;2.85;;
14770;SDS011;7477;45.222;5.688;2022-09-01T14:24:09;2.55;;;2.10;;
14770;SDS011;7477;45.222;5.688;2022-09-01T14:27:29;2.78;;;2.50;;
14770;SDS011;7477;45.222;5.688;2022-09-01T14:30:48;3.00;;;2.70;;
14770;SDS011;7477;45.222;5.688;2022-09-01T14:34:09;6.90;;;2.75;;
14770;SDS011;7477;45.222;5.688;2022-09-01T14:37:29;2.47;;;2.13;;
14770;SDS011;7477;45.222;5.688;2022-09-01T14:40:49;11.25;;;2.45;;
14770;SDS011;7477;45.222;5.688;2022-09-01T14:44:09;2.80;;;2.38;;
14770;SDS011;7477;45.222;5.688;2022-09-01T14:47:28;2.42;;;2.22;;
14770;SDS011;7477;45.222;5.688;2022-09-01T14:50:49;3.83;;;2.35;;
14770;SDS011;7477;45.222;5.688;2022-09-01T14:54:08;2.40;;;2.20;;
14770;SDS011;7477;45.222;5.688;2022-09-01T14:57:27;2.25;;;2.08;;
14770;SDS011;7477;45.222;5.688;2022-09-01T15:00:47;2.60;;;2.20;;
14770;SDS011;7477;45.222;5.688;2022-09-01T15:04:07;5.20;;;2.70;;
14770;SDS011;7477;45.222;5.688;2022-09-01T15:07:26;3.13;;;2.58;;
14770;SDS011;7477;45.222;5.688;2022-09-01T15:10:45;2.90;;;2.60;;
14770;SDS011;7477;45.222;5.688;2022-09-01T15:14:05;4.95;;;2.22;;
14770;SDS011;7477;45.222;5.688;2022-09-01T15:17:24;3.33;;;2.70;;
14770;SDS011;7477;45.222;5.688;2022-09-01T15:20:44;3.20;;;2.30;;
14770;SDS011;7477;45.222;5.688;2022-09-01T15:24:05;2.70;;;2.50;;
14770;SDS011;7477;45.222;5.688;2022-09-01T15:27:25;4.78;;;3.03;;
14770;SDS011;7477;45.222;5.688;2022-09-01T15:30:44;7.32;;;2.42;;
14770;SDS011;7477;45.222;5.688;2022-09-01T15:34:04;2.90;;;2.50;;
14770;SDS011;7477;45.222;5.688;2022-09-01T15:37:24;2.65;;;2.40;;
14770;SDS011;7477;45.222;5.688;2022-09-01T15:40:44;2.50;;;2.30;;
14770;SDS011;7477;45.222;5.688;2022-09-01T15:44:05;2.80;;;2.55;;
14770;SDS011;7477;45.222;5.688;2022-09-01T15:47:25;2.55;;;2.38;;
14770;SDS011;7477;45.222;5.688;2022-09-01T15:50:44;3.08;;;2.20;;
14770;SDS011;7477;45.222;5.688;2022-09-01T15:54:05;5.57;;;2.65;;
14770;SDS011;7477;45.222;5.688;2022-09-01T15:57:27;2.80;;;2.40;;
14770;SDS011;7477;45.222;5.688;2022-09-01T16:00:46;3.47;;;2.50;;
14770;SDS011;7477;45.222;5.688;2022-09-01T16:04:06;2.55;;;2.35;;
14770;SDS011;7477;45.222;5.688;2022-09-01T16:07:26;3.60;;;2.53;;
14770;SDS011;7477;45.222;5.688;2022-09-01T16:10:45;3.67;;;2.67;;
14770;SDS011;7477;45.222;5.688;2022-09-01T16:14:05;5.90;;;2.70;;
14770;SDS011;7477;45.222;5.688;2022-09-01T16:21:23;6.13;;;2.65;;
14770;SDS011;7477;45.222;5.688;2022-09-01T16:24:52;5.68;;;2.95;;
14770;SDS011;7477;45.222;5.688;2022-09-01T16:28:31;10.40;;;3.45;;
14770;SDS011;7477;45.222;5.688;2022-09-01T16:31:54;5.68;;;3.33;;
14770;SDS011;7477;45.222;5.688;2022-09-01T16:35:14;4.18;;;3.05;;
14770;SDS011;7477;45.222;5.688;2022-09-01T16:38:49;4.93;;;2.63;;
14770;SDS011;7477;45.222;5.688;2022-09-01T16:42:25;5.00;;;2.13;;
14770;SDS011;7477;45.222;5.688;2022-09-01T16:46:13;3.08;;;2.40;;
14770;SDS011;7477;45.222;5.688;2022-09-01T16:53:42;3.03;;;1.92;;
14770;SDS011;7477;45.222;5.688;2022-09-01T17:04:57;2.70;;;2.22;;
14770;SDS011;7477;45.222;5.688;2022-09-01T17:08:20;3.25;;;2.15;;
14770;SDS011;7477;45.222;5.688;2022-09-01T17:11:52;2.97;;;2.22;;
14770;SDS011;7477;45.222;5.688;2022-09-01T17:15:37;2.42;;;2.22;;
14770;SDS011;7477;45.222;5.688;2022-09-01T17:19:06;2.50;;;2.30;;
14770;SDS011;7477;45.222;5.688;2022-09-01T17:22:35;3.08;;;2.25;;
14770;SDS011;7477;45.222;5.688;2022-09-01T17:25:57;3.20;;;2.45;;
14770;SDS011;7477;45.222;5.688;2022-09-01T17:29:54;2.50;;;2.30;;
14770;SDS011;7477;45.222;5.688;2022-09-01T17:33:33;2.45;;;2.20;;
14770;SDS011;7477;45.222;5.688;2022-09-01T17:44:10;6.65;;;2.80;;
14770;SDS011;7477;45.222;5.688;2022-09-01T17:54:59;2.80;;;2.30;;
14770;SDS011;7477;45.222;5.688;2022-09-01T18:06:51;4.32;;;2.67;;
14770;SDS011;7477;45.222;5.688;2022-09-01T18:10:36;2.42;;;2.22;;
14770;SDS011;7477;45.222;5.688;2022-09-01T18:14:07;2.58;;;2.38;;
14770;SDS011;7477;45.222;5.688;2022-09-01T18:17:32;2.90;;;2.35;;
14770;SDS011;7477;45.222;5.688;2022-09-01T18:21:01;2.55;;;2.35;;
14770;SDS011;7477;45.222;5.688;2022-09-01T18:24:47;2.72;;;2.53;;
14770;SDS011;7477;45.222;5.688;2022-09-01T18:28:13;4.18;;;2.70;;
14770;SDS011;7477;45.222;5.688;2022-09-01T18:38:57;2.67;;;2.38;;
14770;SDS011;7477;45.222;5.688;2022-09-01T18:42:32;4.50;;;2.33;;
14770;SDS011;7477;45.222;5.688;2022-09-01T18:53:48;3.20;;;2.58;;
14770;SDS011;7477;45.222;5.688;2022-09-01T18:57:17;3.03;;;2.60;;
14770;SDS011;7477;45.222;5.688;2022-09-01T19:07:51;4.60;;;2.75;;
14770;SDS011;7477;45.222;5.688;2022-09-01T19:19:11;3.15;;;2.80;;
14770;SDS011;7477;45.222;5.688;2022-09-01T19:26:24;3.08;;;2.47;;
14770;SDS011;7477;45.222;5.688;2022-09-01T19:29:47;3.00;;;2.80;;
14770;SDS011;7477;45.222;5.688;2022-09-01T19:33:10;2.67;;;2.45;;
14770;SDS011;7477;45.222;5.688;2022-09-01T19:36:45;3.45;;;2.83;;
14770;SDS011;7477;45.222;5.688;2022-09-01T19:40:10;3.53;;;2.78;;
14770;SDS011;7477;45.222;5.688;2022-09-01T19:43:34;2.92;;;2.50;;
14770;SDS011;7477;45.222;5.688;2022-09-01T19:46:59;4.47;;;3.10;;
14770;SDS011;7477;45.222;5.688;2022-09-01T19:50:26;4.05;;;3.00;;
14770;SDS011;7477;45.222;5.688;2022-09-01T19:53:57;6.72;;;3.00;;
14770;SDS011;7477;45.222;5.688;2022-09-01T20:01:15;4.20;;;3.25;;
14770;SDS011;7477;45.222;5.688;2022-09-01T20:04:52;3.20;;;2.70;;
14770;SDS011;7477;45.222;5.688;2022-09-01T20:08:35;3.20;;;2.90;;
14770;SDS011;7477;45.222;5.688;2022-09-01T20:15:45;4.30;;;2.65;;
14770;SDS011;7477;45.222;5.688;2022-09-01T20:19:22;6.65;;;3.20;;
14770;SDS011;7477;45.222;5.688;2022-09-01T20:22:56;4.03;;;3.03;;
14770;SDS011;7477;45.222;5.688;2022-09-01T20:29:52;4.10;;;3.08;;
14770;SDS011;7477;45.222;5.688;2022-09-01T20:36:53;8.27;;;3.50;;
14770;SDS011;7477;45.222;5.688;2022-09-01T20:40:25;3.47;;;2.95;;
14770;SDS011;7477;45.222;5.688;2022-09-01T20:43:50;3.50;;;3.20;;
14770;SDS011;7477;45.222;5.688;2022-09-01T20:47:12;3.28;;;2.80;;
14770;SDS011;7477;45.222;5.688;2022-09-01T20:54:03;6.03;;;3.60;;
14770;SDS011;7477;45.222;5.688;2022-09-01T21:01:15;3.65;;;2.90;;
14770;SDS011;7477;45.222;5.688;2022-09-01T21:15:31;2.83;;;2.63;;
14770;SDS011;7477;45.222;5.688;2022-09-01T21:19:02;3.70;;;3.40;;
14770;SDS011;7477;45.222;5.688;2022-09-01T21:22:43;4.97;;;3.30;;
14770;SDS011;7477;45.222;5.688;2022-09-01T21:26:02;3.33;;;2.92;;
14770;SDS011;7477;45.222;5.688;2022-09-01T21:32:53;7.28;;;3.03;;
14770;SDS011;7477;45.222;5.688;2022-09-01T21:36:14;3.25;;;2.90;;
14770;SDS011;7477;45.222;5.688;2022-09-01T21:39:34;4.22;;;3.40;;
14770;SDS011;7477;45.222;5.688;2022-09-01T21:42:55;4.05;;;3.17;;
14770;SDS011;7477;45.222;5.688;2022-09-01T21:46:16;5.78;;;3.13;;
14770;SDS011;7477;45.222;5.688;2022-09-01T21:49:37;6.60;;;3.28;;
14770;SDS011;7477;45.222;5.688;2022-09-01T21:52:56;5.57;;;3.30;;
14770;SDS011;7477;45.222;5.688;2022-09-01T21:56:16;5.65;;;3.33;;
14770;SDS011;7477;45.222;5.688;2022-09-01T21:59:35;4.47;;;3.65;;
14770;SDS011;7477;45.222;5.688;2022-09-01T22:02:55;3.70;;;3.40;;
14770;SDS011;7477;45.222;5.688;2022-09-01T22:06:17;4.70;;;3.25;;
14770;SDS011;7477;45.222;5.688;2022-09-01T22:09:36;3.90;;;3.50;;
14770;SDS011;7477;45.222;5.688;2022-09-01T22:12:55;4.78;;;3.47;;
14770;SDS011;7477;45.222;5.688;2022-09-01T22:16:19;7.13;;;3.60;;
14770;SDS011;7477;45.222;5.688;2022-09-01T22:19:38;6.25;;;3.25;;
14770;SDS011;7477;45.222;5.688;2022-09-01T22:22:57;6.22;;;3.55;;
14770;SDS011;7477;45.222;5.688;2022-09-01T22:26:22;6.72;;;3.25;;
14770;SDS011;7477;45.222;5.688;2022-09-01T22:29:43;4.35;;;3.15;;
14770;SDS011;7477;45.222;5.688;2022-09-01T22:33:03;4.80;;;3.25;;
14770;SDS011;7477;45.222;5.688;2022-09-01T22:36:26;3.20;;;2.97;;
14770;SDS011;7477;45.222;5.688;2022-09-01T22:39:50;4.57;;;3.35;;
14770;SDS011;7477;45.222;5.688;2022-09-01T22:43:10;6.50;;;3.30;;
14770;SDS011;7477;45.222;5.688;2022-09-01T22:46:30;3.72;;;3.25;;
14770;SDS011;7477;45.222;5.688;2022-09-01T22:49:52;3.65;;;3.05;;
14770;SDS011;7477;45.222;5.688;2022-09-01T22:53:13;3.50;;;3.20;;
14770;SDS011;7477;45.222;5.688;2022-09-01T22:56:34;4.38;;;3.40;;
14770;SDS011;7477;45.222;5.688;2022-09-01T22:59:54;6.65;;;3.67;;
14770;SDS011;7477;45.222;5.688;2022-09-01T23:03:14;3.67;;;3.20;;
14770;SDS011;7477;45.222;5.688;2022-09-01T23:06:37;3.00;;;2.80;;
14770;SDS011;7477;45.222;5.688;2022-09-01T23:10:03;4.43;;;3.10;;
14770;SDS011;7477;45.222;5.688;2022-09-01T23:13:24;4.25;;;3.45;;
14770;SDS011;7477;45.222;5.688;2022-09-01T23:16:46;4.25;;;2.95;;
14770;SDS011;7477;45.222;5.688;2022-09-01T23:20:07;3.60;;;3.17;;
14770;SDS011;7477;45.222;5.688;2022-09-01T23:23:30;3.47;;;3.17;;
14770;SDS011;7477;45.222;5.688;2022-09-01T23:26:50;4.95;;;3.17;;
14770;SDS011;7477;45.222;5.688;2022-09-01T23:30:10;4.07;;;3.17;;
14770;SDS011;7477;45.222;5.688;2022-09-01T23:33:31;4.00;;;3.10;;
14770;SDS011;7477;45.222;5.688;2022-09-01T23:36:50;3.63;;;3.20;;
14770;SDS011;7477;45.222;5.688;2022-09-01T23:40:10;7.22;;;3.08;;